sensor_id;sensor_type;location;lat;lon;timestamp;P1;durP1;ratioP1;P2;durP2;ratioP2
71771;SDS011;59606;52.138;5.424;2023-06-05T00:00:47;9.10;;;2.87;;
71771;SDS011;59606;52.138;5.424;2023-06-05T00:03:13;6.13;;;3.13;;
71771;SDS011;59606;52.138;5.424;2023-06-05T00:05:40;7.60;;;2.95;;
71771;SDS011;59606;52.138;5.424;2023-06-05T00:08:07;7.10;;;2.75;;
71771;SDS011;59606;52.138;5.424;2023-06-05T00:10:35;9.88;;;3.13;;
71771;SDS011;59606;52.138;5.424;2023-06-05T00:13:01;8.00;;;3.10;;
71771;SDS011;59606;52.138;5.424;2023-06-05T00:15:28;7.30;;;3.08;;
71771;SDS011;59606;52.138;5.424;2023-06-05T00:17:54;6.60;;;3.25;;
71771;SDS011;59606;52.138;5.424;2023-06-05T00:20:21;9.13;;;3.50;;
71771;SDS011;59606;52.138;5.424;2023-06-05T00:22:48;6.35;;;3.30;;
71771;SDS011;59606;52.138;5.424;2023-06-05T00:25:15;5.57;;;2.70;;
71771;SDS011;59606;52.138;5.424;2023-06-05T00:27:41;6.82;;;3.67;;
71771;SDS011;59606;52.138;5.424;2023-06-05T00:30:08;10.60;;;3.25;;
71771;SDS011;59606;52.138;5.424;2023-06-05T00:32:36;6.97;;;3.28;;
71771;SDS011;59606;52.138;5.424;2023-06-05T00:35:03;6.47;;;3.50;;
71771;SDS011;59606;52.138;5.424;2023-06-05T00:37:30;8.40;;;3.33;;
71771;SDS011;59606;52.138;5.424;2023-06-05T00:39:57;6.60;;;3.10;;
71771;SDS011;59606;52.138;5.424;2023-06-05T00:42:24;6.03;;;3.30;;
71771;SDS011;59606;52.138;5.424;2023-06-05T00:44:52;7.97;;;3.60;;
71771;SDS011;59606;52.138;5.424;2023-06-05T00:47:19;6.63;;;3.25;;
71771;SDS011;59606;52.138;5.424;2023-06-05T00:49:46;7.70;;;3.20;;
71771;SDS011;59606;52.138;5.424;2023-06-05T00:52:13;6.13;;;3.30;;
71771;SDS011;59606;52.138;5.424;2023-06-05T00:54:41;8.38;;;3.85;;
71771;SDS011;59606;52.138;5.424;2023-06-05T00:57:08;11.07;;;4.07;;
71771;SDS011;59606;52.138;5.424;2023-06-05T00:59:37;6.65;;;3.47;;
71771;SDS011;59606;52.138;5.424;2023-06-05T01:02:04;9.70;;;3.20;;
71771;SDS011;59606;52.138;5.424;2023-06-05T01:04:32;7.03;;;3.53;;
71771;SDS011;59606;52.138;5.424;2023-06-05T01:06:59;8.63;;;3.70;;
71771;SDS011;59606;52.138;5.424;2023-06-05T01:09:30;8.73;;;3.80;;
71771;SDS011;59606;52.138;5.424;2023-06-05T01:11:58;7.55;;;3.50;;
71771;SDS011;59606;52.138;5.424;2023-06-05T01:14:49;8.93;;;3.60;;
71771;SDS011;59606;52.138;5.424;2023-06-05T01:17:18;8.75;;;3.53;;
71771;SDS011;59606;52.138;5.424;2023-06-05T01:19:45;7.88;;;3.65;;
71771;SDS011;59606;52.138;5.424;2023-06-05T01:22:15;9.50;;;3.85;;
71771;SDS011;59606;52.138;5.424;2023-06-05T01:24:42;7.47;;;3.60;;
71771;SDS011;59606;52.138;5.424;2023-06-05T01:30:24;17.75;;;3.70;;
71771;SDS011;59606;52.138;5.424;2023-06-05T01:35:30;8.18;;;4.13;;
71771;SDS011;59606;52.138;5.424;2023-06-05T01:38:00;10.00;;;3.75;;
71771;SDS011;59606;52.138;5.424;2023-06-05T01:40:29;7.30;;;3.67;;
71771;SDS011;59606;52.138;5.424;2023-06-05T01:42:58;9.80;;;3.60;;
71771;SDS011;59606;52.138;5.424;2023-06-05T01:45:27;9.52;;;3.70;;
71771;SDS011;59606;52.138;5.424;2023-06-05T01:47:54;9.35;;;3.58;;
71771;SDS011;59606;52.138;5.424;2023-06-05T01:50:23;8.20;;;4.35;;
71771;SDS011;59606;52.138;5.424;2023-06-05T01:52:51;10.80;;;4.43;;
71771;SDS011;59606;52.138;5.424;2023-06-05T01:55:19;7.90;;;4.07;;
71771;SDS011;59606;52.138;5.424;2023-06-05T01:57:50;10.38;;;4.05;;
71771;SDS011;59606;52.138;5.424;2023-06-05T02:00:17;8.38;;;3.75;;
71771;SDS011;59606;52.138;5.424;2023-06-05T02:02:44;8.57;;;4.35;;
71771;SDS011;59606;52.138;5.424;2023-06-05T02:05:12;8.50;;;3.77;;
71771;SDS011;59606;52.138;5.424;2023-06-05T02:07:40;7.70;;;3.83;;
71771;SDS011;59606;52.138;5.424;2023-06-05T02:10:08;9.15;;;3.80;;
71771;SDS011;59606;52.138;5.424;2023-06-05T02:12:35;6.93;;;3.63;;
71771;SDS011;59606;52.138;5.424;2023-06-05T02:15:08;10.43;;;4.40;;
71771;SDS011;59606;52.138;5.424;2023-06-05T02:17:39;12.17;;;3.60;;
71771;SDS011;59606;52.138;5.424;2023-06-05T02:20:11;7.95;;;4.05;;
71771;SDS011;59606;52.138;5.424;2023-06-05T02:22:39;9.73;;;3.60;;
71771;SDS011;59606;52.138;5.424;2023-06-05T02:25:09;9.57;;;3.70;;
71771;SDS011;59606;52.138;5.424;2023-06-05T02:27:37;7.15;;;3.80;;
71771;SDS011;59606;52.138;5.424;2023-06-05T02:30:04;9.73;;;4.20;;
71771;SDS011;59606;52.138;5.424;2023-06-05T02:32:31;10.85;;;3.90;;
71771;SDS011;59606;52.138;5.424;2023-06-05T02:34:58;8.05;;;3.97;;
71771;SDS011;59606;52.138;5.424;2023-06-05T02:37:24;8.23;;;3.90;;
71771;SDS011;59606;52.138;5.424;2023-06-05T02:39:52;7.57;;;3.58;;
71771;SDS011;59606;52.138;5.424;2023-06-05T02:42:19;11.83;;;3.73;;
71771;SDS011;59606;52.138;5.424;2023-06-05T02:44:46;9.18;;;4.28;;
71771;SDS011;59606;52.138;5.424;2023-06-05T02:47:12;8.35;;;4.35;;
71771;SDS011;59606;52.138;5.424;2023-06-05T02:49:39;9.20;;;4.22;;
71771;SDS011;59606;52.138;5.424;2023-06-05T02:52:06;12.13;;;4.70;;
71771;SDS011;59606;52.138;5.424;2023-06-05T02:54:33;7.97;;;4.20;;
71771;SDS011;59606;52.138;5.424;2023-06-05T02:57:00;10.10;;;4.30;;
71771;SDS011;59606;52.138;5.424;2023-06-05T02:59:27;11.45;;;4.43;;
71771;SDS011;59606;52.138;5.424;2023-06-05T03:01:54;10.10;;;4.25;;
71771;SDS011;59606;52.138;5.424;2023-06-05T03:04:20;10.93;;;4.15;;
71771;SDS011;59606;52.138;5.424;2023-06-05T03:06:50;12.57;;;4.43;;
71771;SDS011;59606;52.138;5.424;2023-06-05T03:09:19;9.93;;;4.75;;
71771;SDS011;59606;52.138;5.424;2023-06-05T03:11:46;12.95;;;4.72;;
71771;SDS011;59606;52.138;5.424;2023-06-05T03:14:12;12.48;;;4.57;;
71771;SDS011;59606;52.138;5.424;2023-06-05T03:16:39;9.32;;;4.22;;
71771;SDS011;59606;52.138;5.424;2023-06-05T03:19:10;11.80;;;4.40;;
71771;SDS011;59606;52.138;5.424;2023-06-05T03:21:39;12.30;;;4.57;;
71771;SDS011;59606;52.138;5.424;2023-06-05T03:24:08;11.85;;;4.22;;
71771;SDS011;59606;52.138;5.424;2023-06-05T03:26:39;11.57;;;4.10;;
71771;SDS011;59606;52.138;5.424;2023-06-05T03:29:10;10.02;;;4.03;;
71771;SDS011;59606;52.138;5.424;2023-06-05T03:31:37;9.87;;;4.17;;
71771;SDS011;59606;52.138;5.424;2023-06-05T03:34:03;10.65;;;4.32;;
71771;SDS011;59606;52.138;5.424;2023-06-05T03:36:30;10.10;;;4.38;;
71771;SDS011;59606;52.138;5.424;2023-06-05T03:38:59;10.35;;;4.72;;
71771;SDS011;59606;52.138;5.424;2023-06-05T03:41:26;9.25;;;4.20;;
71771;SDS011;59606;52.138;5.424;2023-06-05T03:43:53;10.77;;;4.30;;
71771;SDS011;59606;52.138;5.424;2023-06-05T03:46:19;11.93;;;4.63;;
71771;SDS011;59606;52.138;5.424;2023-06-05T03:48:47;8.82;;;4.30;;
71771;SDS011;59606;52.138;5.424;2023-06-05T03:51:27;10.73;;;4.80;;
71771;SDS011;59606;52.138;5.424;2023-06-05T03:53:57;12.27;;;4.53;;
71771;SDS011;59606;52.138;5.424;2023-06-05T03:56:24;13.50;;;5.03;;
71771;SDS011;59606;52.138;5.424;2023-06-05T03:58:57;9.93;;;4.32;;
71771;SDS011;59606;52.138;5.424;2023-06-05T04:01:24;12.65;;;5.15;;
71771;SDS011;59606;52.138;5.424;2023-06-05T04:03:50;11.45;;;4.40;;
71771;SDS011;59606;52.138;5.424;2023-06-05T04:06:17;9.90;;;4.53;;
71771;SDS011;59606;52.138;5.424;2023-06-05T04:08:44;10.60;;;4.17;;
71771;SDS011;59606;52.138;5.424;2023-06-05T04:11:10;14.50;;;5.18;;
71771;SDS011;59606;52.138;5.424;2023-06-05T04:13:37;13.65;;;6.57;;
71771;SDS011;59606;52.138;5.424;2023-06-05T04:16:03;13.68;;;6.20;;
71771;SDS011;59606;52.138;5.424;2023-06-05T04:18:30;13.50;;;5.60;;
71771;SDS011;59606;52.138;5.424;2023-06-05T04:20:57;11.47;;;5.20;;
71771;SDS011;59606;52.138;5.424;2023-06-05T04:23:24;9.77;;;4.95;;
71771;SDS011;59606;52.138;5.424;2023-06-05T04:25:50;11.70;;;4.45;;
71771;SDS011;59606;52.138;5.424;2023-06-05T04:28:20;13.43;;;5.15;;
71771;SDS011;59606;52.138;5.424;2023-06-05T04:30:48;12.65;;;4.53;;
71771;SDS011;59606;52.138;5.424;2023-06-05T04:33:15;10.47;;;4.60;;
71771;SDS011;59606;52.138;5.424;2023-06-05T04:35:42;11.32;;;5.32;;
71771;SDS011;59606;52.138;5.424;2023-06-05T04:38:09;9.30;;;4.50;;
71771;SDS011;59606;52.138;5.424;2023-06-05T04:40:35;10.80;;;5.03;;
71771;SDS011;59606;52.138;5.424;2023-06-05T04:43:02;14.63;;;5.00;;
71771;SDS011;59606;52.138;5.424;2023-06-05T04:45:29;14.40;;;4.90;;
71771;SDS011;59606;52.138;5.424;2023-06-05T04:47:56;10.43;;;5.32;;
71771;SDS011;59606;52.138;5.424;2023-06-05T04:50:23;9.77;;;4.78;;
71771;SDS011;59606;52.138;5.424;2023-06-05T04:52:51;10.88;;;5.20;;
71771;SDS011;59606;52.138;5.424;2023-06-05T04:55:21;13.85;;;5.75;;
71771;SDS011;59606;52.138;5.424;2023-06-05T04:57:48;10.63;;;5.07;;
71771;SDS011;59606;52.138;5.424;2023-06-05T05:00:15;14.73;;;5.93;;
71771;SDS011;59606;52.138;5.424;2023-06-05T05:02:41;10.85;;;4.97;;
71771;SDS011;59606;52.138;5.424;2023-06-05T05:05:08;9.88;;;5.00;;
71771;SDS011;59606;52.138;5.424;2023-06-05T05:07:36;13.13;;;5.47;;
71771;SDS011;59606;52.138;5.424;2023-06-05T05:10:02;12.07;;;5.07;;
71771;SDS011;59606;52.138;5.424;2023-06-05T05:12:29;13.02;;;4.55;;
71771;SDS011;59606;52.138;5.424;2023-06-05T05:14:56;11.82;;;5.20;;
71771;SDS011;59606;52.138;5.424;2023-06-05T05:17:22;11.50;;;4.43;;
71771;SDS011;59606;52.138;5.424;2023-06-05T05:19:49;9.98;;;4.72;;
71771;SDS011;59606;52.138;5.424;2023-06-05T05:22:16;10.40;;;4.40;;
71771;SDS011;59606;52.138;5.424;2023-06-05T05:24:43;10.65;;;4.95;;
71771;SDS011;59606;52.138;5.424;2023-06-05T05:27:09;13.82;;;4.75;;
71771;SDS011;59606;52.138;5.424;2023-06-05T05:29:36;10.60;;;4.82;;
71771;SDS011;59606;52.138;5.424;2023-06-05T05:32:02;12.18;;;5.25;;
71771;SDS011;59606;52.138;5.424;2023-06-05T05:34:29;15.97;;;4.60;;
71771;SDS011;59606;52.138;5.424;2023-06-05T05:36:57;11.30;;;4.72;;
71771;SDS011;59606;52.138;5.424;2023-06-05T05:39:23;11.45;;;5.45;;
71771;SDS011;59606;52.138;5.424;2023-06-05T05:41:50;10.43;;;5.13;;
71771;SDS011;59606;52.138;5.424;2023-06-05T05:44:16;9.65;;;4.50;;
71771;SDS011;59606;52.138;5.424;2023-06-05T05:46:45;10.17;;;5.30;;
71771;SDS011;59606;52.138;5.424;2023-06-05T05:49:12;9.65;;;5.38;;
71771;SDS011;59606;52.138;5.424;2023-06-05T05:51:39;11.38;;;4.97;;
71771;SDS011;59606;52.138;5.424;2023-06-05T05:54:06;9.85;;;4.70;;
71771;SDS011;59606;52.138;5.424;2023-06-05T05:56:33;10.90;;;5.18;;
71771;SDS011;59606;52.138;5.424;2023-06-05T05:59:00;16.80;;;5.43;;
71771;SDS011;59606;52.138;5.424;2023-06-05T06:01:27;12.82;;;5.30;;
71771;SDS011;59606;52.138;5.424;2023-06-05T06:03:54;14.57;;;5.57;;
71771;SDS011;59606;52.138;5.424;2023-06-05T06:06:21;10.52;;;5.15;;
71771;SDS011;59606;52.138;5.424;2023-06-05T06:08:47;10.18;;;5.72;;
71771;SDS011;59606;52.138;5.424;2023-06-05T06:11:14;15.13;;;5.80;;
71771;SDS011;59606;52.138;5.424;2023-06-05T06:13:41;12.07;;;5.38;;
71771;SDS011;59606;52.138;5.424;2023-06-05T06:16:09;16.05;;;5.43;;
71771;SDS011;59606;52.138;5.424;2023-06-05T06:18:36;13.45;;;5.82;;
71771;SDS011;59606;52.138;5.424;2023-06-05T06:21:04;11.93;;;5.25;;
71771;SDS011;59606;52.138;5.424;2023-06-05T06:23:31;14.30;;;5.43;;
71771;SDS011;59606;52.138;5.424;2023-06-05T06:25:58;17.52;;;5.53;;
71771;SDS011;59606;52.138;5.424;2023-06-05T06:28:25;14.10;;;5.25;;
71771;SDS011;59606;52.138;5.424;2023-06-05T06:30:51;12.02;;;5.07;;
71771;SDS011;59606;52.138;5.424;2023-06-05T06:33:18;14.05;;;5.30;;
71771;SDS011;59606;52.138;5.424;2023-06-05T06:35:44;10.93;;;4.47;;
71771;SDS011;59606;52.138;5.424;2023-06-05T06:38:11;14.15;;;5.78;;
71771;SDS011;59606;52.138;5.424;2023-06-05T06:40:37;11.43;;;4.97;;
71771;SDS011;59606;52.138;5.424;2023-06-05T06:43:04;13.10;;;4.90;;
71771;SDS011;59606;52.138;5.424;2023-06-05T06:45:30;12.65;;;4.88;;
71771;SDS011;59606;52.138;5.424;2023-06-05T06:47:57;10.00;;;4.83;;
71771;SDS011;59606;52.138;5.424;2023-06-05T06:50:33;16.25;;;5.45;;
71771;SDS011;59606;52.138;5.424;2023-06-05T06:53:01;9.68;;;4.85;;
71771;SDS011;59606;52.138;5.424;2023-06-05T06:55:27;12.73;;;5.68;;
71771;SDS011;59606;52.138;5.424;2023-06-05T06:57:54;12.25;;;5.20;;
71771;SDS011;59606;52.138;5.424;2023-06-05T07:00:21;10.90;;;5.03;;
71771;SDS011;59606;52.138;5.424;2023-06-05T07:02:47;11.80;;;5.40;;
71771;SDS011;59606;52.138;5.424;2023-06-05T07:05:15;14.07;;;4.53;;
71771;SDS011;59606;52.138;5.424;2023-06-05T07:07:41;9.98;;;4.63;;
71771;SDS011;59606;52.138;5.424;2023-06-05T07:10:08;10.15;;;4.43;;
71771;SDS011;59606;52.138;5.424;2023-06-05T07:12:35;11.23;;;4.80;;
71771;SDS011;59606;52.138;5.424;2023-06-05T07:15:02;10.00;;;5.50;;
71771;SDS011;59606;52.138;5.424;2023-06-05T07:17:29;12.02;;;5.03;;
71771;SDS011;59606;52.138;5.424;2023-06-05T07:19:56;9.43;;;4.45;;
71771;SDS011;59606;52.138;5.424;2023-06-05T07:22:24;11.30;;;5.90;;
71771;SDS011;59606;52.138;5.424;2023-06-05T07:24:54;10.33;;;5.60;;
71771;SDS011;59606;52.138;5.424;2023-06-05T07:27:21;13.25;;;5.07;;
71771;SDS011;59606;52.138;5.424;2023-06-05T07:29:48;8.45;;;4.85;;
71771;SDS011;59606;52.138;5.424;2023-06-05T07:32:17;10.80;;;5.07;;
71771;SDS011;59606;52.138;5.424;2023-06-05T07:34:44;9.75;;;4.22;;
71771;SDS011;59606;52.138;5.424;2023-06-05T07:37:10;8.70;;;4.20;;
71771;SDS011;59606;52.138;5.424;2023-06-05T07:39:37;8.27;;;4.32;;
71771;SDS011;59606;52.138;5.424;2023-06-05T07:42:03;10.00;;;4.43;;
71771;SDS011;59606;52.138;5.424;2023-06-05T07:44:32;10.13;;;5.03;;
71771;SDS011;59606;52.138;5.424;2023-06-05T07:46:58;13.35;;;4.75;;
71771;SDS011;59606;52.138;5.424;2023-06-05T07:49:25;10.83;;;5.60;;
71771;SDS011;59606;52.138;5.424;2023-06-05T07:51:51;12.80;;;6.60;;
71771;SDS011;59606;52.138;5.424;2023-06-05T07:54:18;13.63;;;5.13;;
71771;SDS011;59606;52.138;5.424;2023-06-05T07:56:45;10.50;;;4.95;;
71771;SDS011;59606;52.138;5.424;2023-06-05T07:59:15;10.35;;;5.07;;
71771;SDS011;59606;52.138;5.424;2023-06-05T08:01:43;11.03;;;4.60;;
71771;SDS011;59606;52.138;5.424;2023-06-05T08:04:11;11.80;;;5.45;;
71771;SDS011;59606;52.138;5.424;2023-06-05T08:06:38;10.82;;;4.35;;
71771;SDS011;59606;52.138;5.424;2023-06-05T08:09:06;11.25;;;5.47;;
71771;SDS011;59606;52.138;5.424;2023-06-05T08:11:36;12.80;;;5.90;;
71771;SDS011;59606;52.138;5.424;2023-06-05T08:14:05;13.57;;;5.43;;
71771;SDS011;59606;52.138;5.424;2023-06-05T08:16:32;10.38;;;5.15;;
71771;SDS011;59606;52.138;5.424;2023-06-05T08:18:59;15.35;;;5.28;;
71771;SDS011;59606;52.138;5.424;2023-06-05T08:21:26;13.90;;;5.32;;
71771;SDS011;59606;52.138;5.424;2023-06-05T08:23:53;9.20;;;4.93;;
71771;SDS011;59606;52.138;5.424;2023-06-05T08:26:20;11.70;;;5.43;;
71771;SDS011;59606;52.138;5.424;2023-06-05T08:28:46;12.82;;;5.85;;
71771;SDS011;59606;52.138;5.424;2023-06-05T08:31:13;10.02;;;5.43;;
71771;SDS011;59606;52.138;5.424;2023-06-05T08:33:41;10.40;;;5.00;;
71771;SDS011;59606;52.138;5.424;2023-06-05T08:36:08;9.55;;;4.82;;
71771;SDS011;59606;52.138;5.424;2023-06-05T08:38:35;10.60;;;5.50;;
71771;SDS011;59606;52.138;5.424;2023-06-05T08:41:07;9.55;;;5.35;;
71771;SDS011;59606;52.138;5.424;2023-06-05T08:43:37;9.00;;;5.65;;
71771;SDS011;59606;52.138;5.424;2023-06-05T08:46:05;10.00;;;5.13;;
71771;SDS011;59606;52.138;5.424;2023-06-05T08:48:32;10.68;;;5.30;;
71771;SDS011;59606;52.138;5.424;2023-06-05T08:51:03;9.63;;;5.20;;
71771;SDS011;59606;52.138;5.424;2023-06-05T08:53:33;12.35;;;5.38;;
71771;SDS011;59606;52.138;5.424;2023-06-05T08:56:00;10.68;;;4.97;;
71771;SDS011;59606;52.138;5.424;2023-06-05T08:58:27;23.75;;;5.82;;
71771;SDS011;59606;52.138;5.424;2023-06-05T09:00:54;8.90;;;5.00;;
71771;SDS011;59606;52.138;5.424;2023-06-05T09:03:22;8.40;;;5.17;;
71771;SDS011;59606;52.138;5.424;2023-06-05T09:05:49;10.48;;;4.80;;
71771;SDS011;59606;52.138;5.424;2023-06-05T09:08:15;10.18;;;5.10;;
71771;SDS011;59606;52.138;5.424;2023-06-05T09:10:43;10.05;;;4.93;;
71771;SDS011;59606;52.138;5.424;2023-06-05T09:13:10;9.18;;;4.75;;
71771;SDS011;59606;52.138;5.424;2023-06-05T09:15:36;7.50;;;4.30;;
71771;SDS011;59606;52.138;5.424;2023-06-05T09:20:38;9.18;;;4.70;;
71771;SDS011;59606;52.138;5.424;2023-06-05T09:25:59;7.85;;;4.95;;
71771;SDS011;59606;52.138;5.424;2023-06-05T09:28:28;9.30;;;4.63;;
71771;SDS011;59606;52.138;5.424;2023-06-05T09:33:23;13.80;;;4.82;;
71771;SDS011;59606;52.138;5.424;2023-06-05T09:36:03;7.90;;;4.13;;
71771;SDS011;59606;52.138;5.424;2023-06-05T09:38:31;10.52;;;4.45;;
71771;SDS011;59606;52.138;5.424;2023-06-05T09:41:01;8.00;;;4.70;;
71771;SDS011;59606;52.138;5.424;2023-06-05T09:43:32;7.00;;;3.90;;
71771;SDS011;59606;52.138;5.424;2023-06-05T09:46:05;7.65;;;4.38;;
71771;SDS011;59606;52.138;5.424;2023-06-05T09:48:33;6.93;;;3.47;;
71771;SDS011;59606;52.138;5.424;2023-06-05T09:51:08;10.10;;;4.47;;
71771;SDS011;59606;52.138;5.424;2023-06-05T09:53:45;9.37;;;3.67;;
71771;SDS011;59606;52.138;5.424;2023-06-05T09:56:18;9.30;;;3.90;;
71771;SDS011;59606;52.138;5.424;2023-06-05T09:58:48;8.35;;;3.85;;
71771;SDS011;59606;52.138;5.424;2023-06-05T10:01:18;12.88;;;4.65;;
71771;SDS011;59606;52.138;5.424;2023-06-05T10:06:26;11.30;;;4.43;;
71771;SDS011;59606;52.138;5.424;2023-06-05T10:08:54;7.50;;;4.00;;
71771;SDS011;59606;52.138;5.424;2023-06-05T10:11:23;10.60;;;3.90;;
71771;SDS011;59606;52.138;5.424;2023-06-05T10:13:53;9.10;;;4.32;;
71771;SDS011;59606;52.138;5.424;2023-06-05T10:16:20;8.25;;;3.60;;
71771;SDS011;59606;52.138;5.424;2023-06-05T10:18:52;10.43;;;3.77;;
71771;SDS011;59606;52.138;5.424;2023-06-05T10:21:20;6.90;;;3.72;;
71771;SDS011;59606;52.138;5.424;2023-06-05T10:23:48;7.28;;;3.55;;
71771;SDS011;59606;52.138;5.424;2023-06-05T10:27:03;11.52;;;4.00;;
71771;SDS011;59606;52.138;5.424;2023-06-05T10:31:59;7.67;;;3.77;;
71771;SDS011;59606;52.138;5.424;2023-06-05T10:34:48;9.60;;;3.53;;
71771;SDS011;59606;52.138;5.424;2023-06-05T10:39:53;7.15;;;3.42;;
71771;SDS011;59606;52.138;5.424;2023-06-05T10:42:24;7.32;;;3.00;;
71771;SDS011;59606;52.138;5.424;2023-06-05T10:44:54;6.27;;;3.37;;
71771;SDS011;59606;52.138;5.424;2023-06-05T10:52:43;10.48;;;3.33;;
71771;SDS011;59606;52.138;5.424;2023-06-05T10:55:10;5.65;;;3.30;;
71771;SDS011;59606;52.138;5.424;2023-06-05T11:00:30;6.60;;;3.42;;
71771;SDS011;59606;52.138;5.424;2023-06-05T11:02:57;5.85;;;2.85;;
71771;SDS011;59606;52.138;5.424;2023-06-05T11:05:27;6.93;;;3.00;;
71771;SDS011;59606;52.138;5.424;2023-06-05T11:13:54;6.22;;;2.63;;
71771;SDS011;59606;52.138;5.424;2023-06-05T11:16:25;5.60;;;3.03;;
71771;SDS011;59606;52.138;5.424;2023-06-05T11:19:37;5.97;;;3.13;;
71771;SDS011;59606;52.138;5.424;2023-06-05T11:22:09;5.70;;;2.97;;
71771;SDS011;59606;52.138;5.424;2023-06-05T11:24:37;6.77;;;3.00;;
71771;SDS011;59606;52.138;5.424;2023-06-05T11:27:05;5.43;;;2.90;;
71771;SDS011;59606;52.138;5.424;2023-06-05T11:29:35;5.57;;;3.50;;
71771;SDS011;59606;52.138;5.424;2023-06-05T11:32:10;5.70;;;3.10;;
71771;SDS011;59606;52.138;5.424;2023-06-05T11:34:38;7.47;;;2.40;;
71771;SDS011;59606;52.138;5.424;2023-06-05T11:37:14;10.60;;;3.50;;
71771;SDS011;59606;52.138;5.424;2023-06-05T11:39:42;8.68;;;3.38;;
71771;SDS011;59606;52.138;5.424;2023-06-05T11:42:10;8.05;;;2.72;;
71771;SDS011;59606;52.138;5.424;2023-06-05T11:44:36;6.70;;;3.38;;
71771;SDS011;59606;52.138;5.424;2023-06-05T11:47:03;5.30;;;2.80;;
71771;SDS011;59606;52.138;5.424;2023-06-05T11:49:29;5.77;;;2.80;;
71771;SDS011;59606;52.138;5.424;2023-06-05T11:51:56;6.03;;;2.85;;
71771;SDS011;59606;52.138;5.424;2023-06-05T11:54:24;9.93;;;2.80;;
71771;SDS011;59606;52.138;5.424;2023-06-05T11:56:56;5.55;;;2.60;;
71771;SDS011;59606;52.138;5.424;2023-06-05T11:59:24;5.55;;;3.10;;
71771;SDS011;59606;52.138;5.424;2023-06-05T12:01:51;9.60;;;2.90;;
71771;SDS011;59606;52.138;5.424;2023-06-05T12:04:20;10.85;;;2.70;;
71771;SDS011;59606;52.138;5.424;2023-06-05T12:06:48;8.75;;;2.97;;
71771;SDS011;59606;52.138;5.424;2023-06-05T12:09:15;9.15;;;2.70;;
71771;SDS011;59606;52.138;5.424;2023-06-05T12:11:42;7.07;;;2.67;;
71771;SDS011;59606;52.138;5.424;2023-06-05T12:14:11;5.77;;;3.30;;
71771;SDS011;59606;52.138;5.424;2023-06-05T12:16:39;9.00;;;3.22;;
71771;SDS011;59606;52.138;5.424;2023-06-05T12:19:19;8.77;;;3.30;;
71771;SDS011;59606;52.138;5.424;2023-06-05T12:21:46;7.03;;;2.90;;
71771;SDS011;59606;52.138;5.424;2023-06-05T12:24:14;7.82;;;3.80;;
71771;SDS011;59606;52.138;5.424;2023-06-05T12:26:47;9.10;;;3.37;;
71771;SDS011;59606;52.138;5.424;2023-06-05T12:29:14;7.25;;;3.15;;
71771;SDS011;59606;52.138;5.424;2023-06-05T12:31:42;5.72;;;2.90;;
71771;SDS011;59606;52.138;5.424;2023-06-05T12:34:09;6.45;;;2.95;;
71771;SDS011;59606;52.138;5.424;2023-06-05T12:36:38;10.10;;;3.58;;
71771;SDS011;59606;52.138;5.424;2023-06-05T12:39:07;8.30;;;3.33;;
71771;SDS011;59606;52.138;5.424;2023-06-05T12:41:36;6.43;;;3.47;;
71771;SDS011;59606;52.138;5.424;2023-06-05T12:44:03;8.85;;;3.72;;
71771;SDS011;59606;52.138;5.424;2023-06-05T12:46:31;7.18;;;3.28;;
71771;SDS011;59606;52.138;5.424;2023-06-05T12:48:58;6.72;;;3.10;;
71771;SDS011;59606;52.138;5.424;2023-06-05T12:51:26;6.40;;;3.20;;
71771;SDS011;59606;52.138;5.424;2023-06-05T12:53:54;12.43;;;3.25;;
71771;SDS011;59606;52.138;5.424;2023-06-05T12:56:22;7.72;;;3.42;;
71771;SDS011;59606;52.138;5.424;2023-06-05T12:58:53;7.05;;;3.63;;
71771;SDS011;59606;52.138;5.424;2023-06-05T13:01:22;5.72;;;3.17;;
71771;SDS011;59606;52.138;5.424;2023-06-05T13:03:52;6.33;;;2.87;;
71771;SDS011;59606;52.138;5.424;2023-06-05T13:06:19;8.43;;;3.15;;
71771;SDS011;59606;52.138;5.424;2023-06-05T13:08:46;6.65;;;2.95;;
71771;SDS011;59606;52.138;5.424;2023-06-05T13:11:13;10.18;;;3.63;;
71771;SDS011;59606;52.138;5.424;2023-06-05T13:13:40;6.93;;;3.00;;
71771;SDS011;59606;52.138;5.424;2023-06-05T13:16:06;5.97;;;2.93;;
71771;SDS011;59606;52.138;5.424;2023-06-05T13:18:35;7.57;;;3.10;;
71771;SDS011;59606;52.138;5.424;2023-06-05T13:21:02;9.20;;;3.38;;
71771;SDS011;59606;52.138;5.424;2023-06-05T13:23:29;10.65;;;4.10;;
71771;SDS011;59606;52.138;5.424;2023-06-05T13:25:57;7.88;;;3.60;;
71771;SDS011;59606;52.138;5.424;2023-06-05T13:28:24;9.90;;;3.40;;
71771;SDS011;59606;52.138;5.424;2023-06-05T13:30:50;7.25;;;3.47;;
71771;SDS011;59606;52.138;5.424;2023-06-05T13:33:18;5.90;;;3.20;;
71771;SDS011;59606;52.138;5.424;2023-06-05T13:35:45;9.80;;;3.72;;
71771;SDS011;59606;52.138;5.424;2023-06-05T13:38:12;5.68;;;2.95;;
71771;SDS011;59606;52.138;5.424;2023-06-05T13:40:38;7.07;;;3.13;;
71771;SDS011;59606;52.138;5.424;2023-06-05T13:43:05;17.88;;;3.28;;
71771;SDS011;59606;52.138;5.424;2023-06-05T13:45:31;10.30;;;3.55;;
71771;SDS011;59606;52.138;5.424;2023-06-05T13:47:58;6.00;;;3.42;;
71771;SDS011;59606;52.138;5.424;2023-06-05T13:50:24;9.48;;;3.53;;
71771;SDS011;59606;52.138;5.424;2023-06-05T13:52:51;6.27;;;2.80;;
71771;SDS011;59606;52.138;5.424;2023-06-05T13:55:18;8.68;;;3.40;;
71771;SDS011;59606;52.138;5.424;2023-06-05T13:57:45;7.45;;;3.88;;
71771;SDS011;59606;52.138;5.424;2023-06-05T14:00:12;8.07;;;3.90;;
71771;SDS011;59606;52.138;5.424;2023-06-05T14:02:40;7.07;;;3.63;;
71771;SDS011;59606;52.138;5.424;2023-06-05T14:05:07;6.97;;;3.73;;
71771;SDS011;59606;52.138;5.424;2023-06-05T14:07:36;13.20;;;3.80;;
71771;SDS011;59606;52.138;5.424;2023-06-05T14:10:15;10.02;;;4.85;;
71771;SDS011;59606;52.138;5.424;2023-06-05T14:12:43;9.07;;;4.55;;
71771;SDS011;59606;52.138;5.424;2023-06-05T14:15:10;9.73;;;3.70;;
71771;SDS011;59606;52.138;5.424;2023-06-05T14:17:37;7.23;;;3.53;;
71771;SDS011;59606;52.138;5.424;2023-06-05T14:20:03;6.90;;;4.45;;
71771;SDS011;59606;52.138;5.424;2023-06-05T14:22:31;6.80;;;3.88;;
71771;SDS011;59606;52.138;5.424;2023-06-05T14:24:58;11.07;;;3.90;;
71771;SDS011;59606;52.138;5.424;2023-06-05T14:27:26;10.38;;;3.72;;
71771;SDS011;59606;52.138;5.424;2023-06-05T14:29:52;9.10;;;3.93;;
71771;SDS011;59606;52.138;5.424;2023-06-05T14:32:19;12.43;;;4.65;;
71771;SDS011;59606;52.138;5.424;2023-06-05T14:34:45;8.35;;;3.55;;
71771;SDS011;59606;52.138;5.424;2023-06-05T14:37:12;11.20;;;3.83;;
71771;SDS011;59606;52.138;5.424;2023-06-05T14:39:39;6.82;;;3.50;;
71771;SDS011;59606;52.138;5.424;2023-06-05T14:42:06;9.73;;;3.73;;
71771;SDS011;59606;52.138;5.424;2023-06-05T14:44:33;10.82;;;3.55;;
71771;SDS011;59606;52.138;5.424;2023-06-05T14:47:00;9.68;;;4.30;;
71771;SDS011;59606;52.138;5.424;2023-06-05T14:49:27;7.00;;;3.67;;
71771;SDS011;59606;52.138;5.424;2023-06-05T14:51:53;7.45;;;3.30;;
71771;SDS011;59606;52.138;5.424;2023-06-05T14:54:20;6.90;;;3.10;;
71771;SDS011;59606;52.138;5.424;2023-06-05T14:56:46;6.28;;;3.45;;
71771;SDS011;59606;52.138;5.424;2023-06-05T14:59:13;9.95;;;4.10;;
71771;SDS011;59606;52.138;5.424;2023-06-05T15:01:45;7.20;;;3.42;;
71771;SDS011;59606;52.138;5.424;2023-06-05T15:04:12;7.55;;;3.65;;
71771;SDS011;59606;52.138;5.424;2023-06-05T15:06:38;7.53;;;3.50;;
71771;SDS011;59606;52.138;5.424;2023-06-05T15:09:05;6.30;;;3.47;;
71771;SDS011;59606;52.138;5.424;2023-06-05T15:11:32;6.70;;;3.65;;
71771;SDS011;59606;52.138;5.424;2023-06-05T15:13:59;6.93;;;3.40;;
71771;SDS011;59606;52.138;5.424;2023-06-05T15:16:26;6.97;;;3.80;;
71771;SDS011;59606;52.138;5.424;2023-06-05T15:19:05;6.70;;;3.30;;
71771;SDS011;59606;52.138;5.424;2023-06-05T15:21:32;8.00;;;3.30;;